Time;durP1;ratioP1;P1;durP2;ratioP2;P2;SDS_P1;SDS_P2;PMS_P1;PMS_P2;Temp;Humidity;BMP_temperature;BMP_pressure;BME280_temperature;BME280_humidity;BME280_pressure;Samples;Min_cycle;Max_cycle;Signal;HPM_P1;HPM_P2
2023/03/17 00:02:59;;;;;;;3.17;2.15;;;18.70;52.30;;;;;;6279068;28;20021;-70
2023/03/17 00:06:00;;;;;;;2.45;1.70;;;18.70;52.30;;;;;;6297050;28;20033;-70
2023/03/17 00:09:01;;;;;;;2.85;1.90;;;18.70;52.30;;;;;;6279084;28;20503;-70
2023/03/17 00:12:05;;;;;;;4.03;1.98;;;18.70;52.30;;;;;;6296772;28;20021;-70
2023/03/17 00:15:06;;;;;;;2.50;1.85;;;18.70;52.30;;;;;;6297129;28;20074;-71
2023/03/17 00:18:13;;;;;;;2.90;2.15;;;18.70;52.30;;;;;;6297042;28;20025;-70
2023/03/17 00:21:21;;;;;;;2.30;1.67;;;18.70;52.40;;;;;;6296693;28;20400;-70
2023/03/17 00:24:22;;;;;;;3.90;2.00;;;18.60;52.20;;;;;;6296714;28;20047;-70
2023/03/17 00:27:23;;;;;;;2.45;1.77;;;18.60;52.20;;;;;;6278607;28;20056;-70
2023/03/17 00:30:24;;;;;;;2.55;1.75;;;18.70;52.30;;;;;;6296324;28;20024;-69
2023/03/17 00:33:28;;;;;;;3.58;2.20;;;18.70;52.30;;;;;;6296275;28;20108;-70
2023/03/17 00:36:31;;;;;;;2.83;1.63;;;18.70;52.30;;;;;;6296414;28;20025;-70
2023/03/17 00:39:31;;;;;;;2.40;1.70;;;18.70;52.30;;;;;;6296406;28;20031;-70
2023/03/17 00:42:32;;;;;;;2.83;2.03;;;18.60;52.20;;;;;;6295938;28;20020;-69
2023/03/17 00:45:33;;;;;;;2.47;1.73;;;18.60;52.20;;;;;;6296275;28;20040;-68
2023/03/17 00:48:34;;;;;;;2.40;1.80;;;18.60;52.20;;;;;;6295924;28;20478;-70
2023/03/17 00:51:34;;;;;;;3.03;2.00;;;18.70;52.30;;;;;;6294759;28;20040;-69
2023/03/17 00:54:35;;;;;;;2.47;1.70;;;18.70;52.30;;;;;;6296436;28;20025;-69
2023/03/17 00:57:38;;;;;;;2.97;1.77;;;18.60;52.20;;;;;;6296039;28;20025;-70
2023/03/17 01:00:39;;;;;;;2.40;1.77;;;18.70;52.30;;;;;;6295506;28;20017;-70
2023/03/17 01:03:40;;;;;;;4.40;2.00;;;18.70;52.30;;;;;;6277664;28;20028;-70
2023/03/17 01:06:42;;;;;;;2.75;1.92;;;18.60;52.10;;;;;;6295645;28;20048;-70
2023/03/17 01:09:42;;;;;;;2.28;1.55;;;18.60;52.20;;;;;;6295282;28;20020;-70
2023/03/17 01:12:44;;;;;;;2.88;2.00;;;18.60;52.10;;;;;;6295620;28;20021;-69
2023/03/17 01:15:48;;;;;;;2.85;1.88;;;18.60;52.20;;;;;;6295430;28;20021;-70
2023/03/17 01:18:49;;;;;;;3.35;2.00;;;18.70;52.20;;;;;;6295450;28;20043;-70
2023/03/17 01:21:51;;;;;;;2.80;1.92;;;18.60;52.20;;;;;;6295007;28;20345;-69
2023/03/17 01:24:52;;;;;;;2.50;1.77;;;18.60;52.80;;;;;;6293579;28;20048;-69
2023/03/17 01:27:54;;;;;;;2.28;1.83;;;18.70;52.30;;;;;;6293804;28;20248;-70
2023/03/17 01:30:55;;;;;;;3.22;1.90;;;18.60;52.10;;;;;;6293462;28;20033;-70
2023/03/17 01:33:56;;;;;;;2.53;1.70;;;18.70;52.20;;;;;;6293318;28;20048;-69
2023/03/17 01:36:58;;;;;;;2.15;1.67;;;18.60;52.10;;;;;;6275646;28;20021;-70
2023/03/17 01:39:59;;;;;;;2.58;1.60;;;18.60;52.10;;;;;;6293390;28;20055;-70
2023/03/17 01:43:07;;;;;;;2.75;1.75;;;18.60;52.10;;;;;;6293029;28;20422;-69
2023/03/17 01:46:16;;;;;;;4.00;1.63;;;18.70;52.30;;;;;;6267443;28;20779;-69
2023/03/17 01:49:30;;;;;;;2.45;1.83;;;18.60;52.10;;;;;;6269352;28;20570;-69
2023/03/17 01:52:33;;;;;;;1.98;1.38;;;18.70;52.20;;;;;;6293189;28;20440;-69
2023/03/17 01:55:34;;;;;;;3.03;2.05;;;18.60;52.10;;;;;;6292665;28;20046;-69
2023/03/17 01:58:35;;;;;;;2.25;1.60;;;18.60;52.10;;;;;;6293106;28;20016;-69
2023/03/17 02:01:42;;;;;;;2.28;1.60;;;18.60;52.10;;;;;;6292989;28;20021;-69
2023/03/17 02:04:43;;;;;;;2.70;1.85;;;18.60;52.10;;;;;;6292649;28;20055;-69
2023/03/17 02:07:44;;;;;;;2.20;1.52;;;18.70;52.20;;;;;;6292911;28;20035;-69
2023/03/17 02:10:48;;;;;;;3.08;1.92;;;18.60;52.20;;;;;;6293129;28;20021;-70
2023/03/17 02:13:49;;;;;;;2.08;1.67;;;18.70;52.10;;;;;;6292663;28;20428;-69
2023/03/17 02:16:49;;;;;;;3.42;1.80;;;18.60;52.10;;;;;;6292410;28;20025;-69
2023/03/17 02:19:51;;;;;;;2.58;1.70;;;18.60;52.10;;;;;;6274932;28;20035;-69
2023/03/17 02:22:53;;;;;;;2.40;1.80;;;18.60;52.10;;;;;;6292519;28;20541;-70
2023/03/17 02:25:54;;;;;;;2.08;1.40;;;18.60;52.10;;;;;;6274783;28;20058;-70
2023/03/17 02:28:55;;;;;;;2.75;1.85;;;18.60;52.10;;;;;;6292262;28;20021;-70
2023/03/17 02:31:57;;;;;;;3.67;1.75;;;18.60;52.10;;;;;;6292619;28;20087;-69
2023/03/17 02:34:57;;;;;;;2.33;1.85;;;18.60;52.10;;;;;;6274538;28;20112;-69
2023/03/17 02:37:58;;;;;;;2.17;1.70;;;18.60;52.10;;;;;;6293252;28;20028;-70
2023/03/17 02:40:58;;;;;;;3.22;1.70;;;18.70;52.10;;;;;;6292256;28;20087;-69
2023/03/17 02:44:00;;;;;;;2.45;1.65;;;18.70;52.10;;;;;;6274104;28;20040;-69
2023/03/17 02:47:02;;;;;;;2.95;2.00;;;18.60;52.70;;;;;;6292373;28;20020;-69
2023/03/17 02:50:05;;;;;;;2.88;1.85;;;18.60;52.00;;;;;;6292310;28;20029;-69
2023/03/17 02:53:06;;;;;;;1.92;1.45;;;18.60;52.00;;;;;;6292411;28;20576;-69
2023/03/17 02:56:07;;;;;;;3.38;1.90;;;18.60;52.00;;;;;;6292159;28;20017;-69
2023/03/17 02:59:08;;;;;;;2.28;1.55;;;18.60;52.00;;;;;;6292505;28;20025;-69
2023/03/17 03:02:10;;;;;;;2.58;1.73;;;18.70;52.10;;;;;;6274215;28;20262;-69
2023/03/17 03:05:11;;;;;;;2.10;1.40;;;18.60;52.00;;;;;;6292231;28;20074;-69
2023/03/17 03:08:12;;;;;;;3.13;1.95;;;18.60;52.00;;;;;;6274291;28;20646;-70
2023/03/17 03:11:13;;;;;;;3.05;1.92;;;18.60;52.00;;;;;;6292178;28;20077;-69
2023/03/17 03:14:13;;;;;;;3.00;1.95;;;18.60;52.00;;;;;;6292759;28;20021;-70
2023/03/17 03:17:15;;;;;;;2.80;1.75;;;18.60;52.00;;;;;;6296478;28;20028;-69
2023/03/17 03:20:16;;;;;;;2.20;1.60;;;18.60;51.90;;;;;;6279650;28;20056;-69
2023/03/17 03:23:16;;;;;;;2.65;1.73;;;18.60;52.00;;;;;;6296185;28;20374;-69
2023/03/17 03:26:17;;;;;;;2.70;1.63;;;18.60;52.00;;;;;;6296997;28;20032;-69
2023/03/17 03:29:18;;;;;;;2.20;1.38;;;18.60;51.90;;;;;;6296308;28;20040;-69
2023/03/17 03:32:18;;;;;;;2.20;1.50;;;18.70;52.00;;;;;;6296436;28;20055;-69
2023/03/17 03:35:19;;;;;;;2.70;1.80;;;18.70;52.00;;;;;;6296266;28;20036;-69
2023/03/17 03:38:22;;;;;;;2.40;1.65;;;18.60;52.00;;;;;;6296715;28;20045;-69
2023/03/17 03:41:22;;;;;;;2.47;1.70;;;18.60;52.00;;;;;;6296152;28;20031;-69
2023/03/17 03:44:23;;;;;;;2.58;1.85;;;18.60;51.90;;;;;;6296176;28;20041;-69
2023/03/17 03:47:24;;;;;;;3.00;1.83;;;18.60;51.90;;;;;;6295878;28;20021;-69
2023/03/17 03:50:25;;;;;;;2.55;1.58;;;18.60;51.90;;;;;;6278114;28;20521;-69
2023/03/17 03:53:27;;;;;;;2.20;1.75;;;18.60;51.90;;;;;;6295654;28;20025;-69
2023/03/17 03:56:27;;;;;;;2.58;1.58;;;18.60;51.90;;;;;;6295676;28;20043;-69
2023/03/17 03:59:29;;;;;;;3.10;1.92;;;18.60;51.90;;;;;;6277936;28;20032;-70
2023/03/17 04:02:30;;;;;;;2.40;1.60;;;18.60;51.90;;;;;;6295676;28;20019;-69
2023/03/17 04:05:31;;;;;;;2.15;1.58;;;18.60;51.90;;;;;;6295759;28;20036;-70
2023/03/17 04:08:32;;;;;;;2.35;1.70;;;18.60;51.90;;;;;;6277536;28;20031;-69
2023/03/17 04:11:32;;;;;;;2.17;1.45;;;18.70;52.00;;;;;;6277536;28;20024;-69
2023/03/17 04:14:33;;;;;;;2.70;1.75;;;18.60;51.90;;;;;;6295275;28;20017;-69
2023/03/17 04:17:35;;;;;;;2.72;1.67;;;18.60;52.60;;;;;;6277822;28;20085;-69
2023/03/17 04:20:37;;;;;;;3.17;1.73;;;18.60;51.90;;;;;;6295419;28;20047;-69
2023/03/17 04:23:38;;;;;;;2.30;1.77;;;18.60;51.90;;;;;;6276892;28;20070;-69
2023/03/17 04:26:40;;;;;;;2.25;1.60;;;18.60;51.90;;;;;;6294683;28;20060;-70
2023/03/17 04:29:41;;;;;;;3.17;1.77;;;18.60;51.90;;;;;;6295539;28;20021;-69
2023/03/17 04:32:43;;;;;;;2.40;1.50;;;18.60;51.90;;;;;;6295535;28;20096;-69
2023/03/17 04:35:44;;;;;;;2.78;1.73;;;18.60;51.90;;;;;;6295383;28;20441;-70
2023/03/17 04:38:45;;;;;;;2.47;1.63;;;18.60;51.80;;;;;;6276685;28;20035;-69
2023/03/17 04:41:45;;;;;;;2.60;1.77;;;18.60;51.80;;;;;;6294988;28;20032;-70
2023/03/17 04:44:46;;;;;;;1.90;1.52;;;18.60;51.90;;;;;;6294340;28;20044;-69
2023/03/17 04:47:47;;;;;;;2.30;1.83;;;18.60;51.90;;;;;;6294964;28;20481;-69
2023/03/17 04:50:48;;;;;;;1.85;1.60;;;18.60;51.90;;;;;;6294361;28;20036;-70
2023/03/17 04:53:49;;;;;;;2.35;1.90;;;18.60;51.80;;;;;;6268795;28;20075;-70
2023/03/17 04:56:51;;;;;;;2.90;1.77;;;18.60;51.80;;;;;;6269856;28;20029;-69
2023/03/17 05:00:38;;;;;;;1.90;1.33;;;18.60;51.80;;;;;;6276578;28;20490;-70
2023/03/17 05:03:39;;;;;;;2.63;1.70;;;18.60;51.80;;;;;;6294283;28;20373;-69
2023/03/17 05:06:40;;;;;;;2.85;1.70;;;18.60;51.90;;;;;;6294487;28;20028;-69
2023/03/17 05:09:41;;;;;;;2.92;1.90;;;18.60;51.90;;;;;;6276040;28;20112;-69
2023/03/17 05:12:42;;;;;;;2.47;1.77;;;18.60;51.80;;;;;;6275955;28;20370;-69
2023/03/17 05:15:46;;;;;;;2.72;1.83;;;18.60;51.80;;;;;;6294147;28;20025;-70
2023/03/17 05:18:48;;;;;;;2.42;1.85;;;18.60;51.80;;;;;;6294229;28;20025;-69
2023/03/17 05:21:49;;;;;;;2.38;1.45;;;18.60;51.80;;;;;;6293681;28;20103;-70
2023/03/17 05:24:50;;;;;;;2.00;1.45;;;18.60;51.70;;;;;;6275758;28;20032;-69
2023/03/17 05:27:50;;;;;;;2.55;1.90;;;18.60;51.70;;;;;;6275669;28;20622;-69
2023/03/17 05:30:52;;;;;;;2.50;1.90;;;18.70;51.80;;;;;;6293309;28;20103;-71
2023/03/17 05:33:52;;;;;;;2.42;1.70;;;18.60;51.70;;;;;;6266746;28;20529;-70
2023/03/17 05:36:53;;;;;;;3.20;1.73;;;18.70;51.70;;;;;;6285192;28;20031;-70
2023/03/17 05:39:54;;;;;;;3.05;1.90;;;18.60;51.60;;;;;;6279970;28;20025;-70
2023/03/17 05:42:55;;;;;;;2.35;1.80;;;18.60;51.60;;;;;;6275193;28;20029;-70
2023/03/17 05:45:56;;;;;;;2.95;1.58;;;18.60;51.60;;;;;;6318345;28;20031;-70
2023/03/17 05:48:57;;;;;;;2.25;1.55;;;18.70;51.70;;;;;;6292938;28;20059;-68
2023/03/17 05:51:57;;;;;;;2.55;1.42;;;18.60;51.50;;;;;;6291854;28;20078;-68
2023/03/17 05:54:59;;;;;;;2.13;1.40;;;18.60;51.60;;;;;;6292274;28;20370;-69
2023/03/17 05:58:00;;;;;;;2.25;1.67;;;18.60;51.50;;;;;;6292761;28;20362;-68
2023/03/17 06:01:00;;;;;;;2.38;1.80;;;18.60;51.50;;;;;;6293960;28;20036;-68
2023/03/17 06:04:02;;;;;;;3.28;1.63;;;18.60;51.50;;;;;;6284725;28;20114;-68
2023/03/17 06:07:03;;;;;;;2.38;1.60;;;18.60;51.40;;;;;;6319908;28;20481;-69
2023/03/17 06:10:05;;;;;;;2.42;1.70;;;18.60;51.40;;;;;;6297905;28;20036;-68
2023/03/17 06:13:06;;;;;;;3.13;1.30;;;18.70;51.50;;;;;;6294954;28;20028;-68
2023/03/17 06:16:07;;;;;;;2.17;1.40;;;18.70;51.50;;;;;;6276361;28;20099;-69
2023/03/17 06:19:08;;;;;;;2.47;1.63;;;18.70;51.50;;;;;;6294221;28;20016;-69
2023/03/17 06:22:08;;;;;;;2.65;1.40;;;18.60;51.50;;;;;;6276402;28;20031;-69
2023/03/17 06:25:10;;;;;;;3.17;1.50;;;18.60;51.50;;;;;;6276026;28;20385;-69
2023/03/17 06:28:12;;;;;;;1.58;1.30;;;18.70;51.60;;;;;;6295313;28;20031;-69
2023/03/17 06:31:12;;;;;;;2.67;1.38;;;18.60;51.50;;;;;;6298133;28;20068;-68
2023/03/17 06:34:13;;;;;;;2.28;1.60;;;18.70;51.70;;;;;;6274657;28;20496;-69
2023/03/17 06:37:15;;;;;;;5.50;1.70;;;18.70;51.70;;;;;;6297063;28;20384;-69
2023/03/17 06:40:16;;;;;;;6.07;1.70;;;18.60;51.60;;;;;;6289618;28;20485;-69
2023/03/17 06:43:18;;;;;;;2.55;1.50;;;18.70;51.70;;;;;;6293749;28;20090;-69
2023/03/17 06:46:19;;;;;;;3.78;1.77;;;18.70;51.70;;;;;;6279479;28;20417;-68
2023/03/17 06:49:19;;;;;;;2.05;1.67;;;18.60;51.60;;;;;;6295576;28;20043;-69
2023/03/17 06:52:20;;;;;;;2.00;1.48;;;18.60;51.70;;;;;;6298772;28;20611;-69
2023/03/17 06:55:21;;;;;;;2.85;1.30;;;18.70;51.70;;;;;;6312911;28;20141;-69
2023/03/17 06:58:23;;;;;;;2.38;1.50;;;18.60;51.70;;;;;;6305679;28;20063;-68
2023/03/17 07:01:26;;;;;;;2.28;1.45;;;18.70;51.80;;;;;;6292243;28;20032;-69
2023/03/17 07:04:26;;;;;;;2.45;1.60;;;18.60;51.70;;;;;;6300393;28;20110;-69
2023/03/17 07:07:27;;;;;;;1.88;1.50;;;18.60;51.70;;;;;;6299251;28;20027;-69
2023/03/17 07:10:28;;;;;;;2.30;1.80;;;18.60;51.70;;;;;;6303351;28;20028;-68
2023/03/17 07:13:30;;;;;;;3.35;1.67;;;18.60;51.70;;;;;;6280743;28;20033;-69
2023/03/17 07:16:31;;;;;;;3.13;1.60;;;18.60;52.50;;;;;;6302751;28;20063;-69
2023/03/17 07:19:33;;;;;;;2.75;1.52;;;18.60;51.80;;;;;;6298387;28;20664;-69
2023/03/17 07:22:35;;;;;;;3.42;1.65;;;18.60;51.80;;;;;;6298831;28;20082;-68
2023/03/17 07:25:35;;;;;;;1.67;1.40;;;18.60;51.80;;;;;;6279488;28;20123;-69
2023/03/17 07:28:36;;;;;;;2.45;1.42;;;18.60;51.80;;;;;;6280252;28;20028;-69
2023/03/17 07:31:37;;;;;;;2.33;1.50;;;18.70;51.90;;;;;;6299504;28;20048;-69
2023/03/17 07:34:38;;;;;;;1.38;1.10;;;18.60;51.80;;;;;;6298115;28;20362;-69
2023/03/17 07:37:39;;;;;;;2.33;1.55;;;18.60;51.80;;;;;;6309959;28;20036;-69
2023/03/17 07:40:41;;;;;;;2.83;1.70;;;18.70;51.90;;;;;;6281910;28;20028;-68
2023/03/17 07:43:42;;;;;;;2.05;1.50;;;18.60;51.80;;;;;;6280106;28;20062;-68
2023/03/17 07:46:42;;;;;;;1.88;1.40;;;18.60;51.80;;;;;;6281940;28;20017;-69
2023/03/17 07:49:43;;;;;;;1.80;1.15;;;18.60;51.80;;;;;;6255733;28;20402;-70
2023/03/17 07:52:44;;;;;;;1.65;1.20;;;18.70;51.90;;;;;;6273728;28;20023;-70
2023/03/17 07:55:45;;;;;;;3.08;1.48;;;18.70;51.90;;;;;;6261527;28;20020;-70
2023/03/17 07:58:46;;;;;;;1.90;1.40;;;18.70;52.60;;;;;;6271444;28;20075;-70
2023/03/17 08:01:47;;;;;;;2.17;1.40;;;18.70;51.90;;;;;;6268564;28;20136;-70
2023/03/17 08:04:47;;;;;;;1.80;1.20;;;18.70;51.90;;;;;;6277180;28;20155;-67
2023/03/17 08:07:48;;;;;;;2.22;1.58;;;18.70;51.90;;;;;;6292841;28;20495;-73
2023/03/17 08:10:49;;;;;;;5.47;1.98;;;18.70;52.00;;;;;;6297426;28;20032;-71
2023/03/17 08:13:50;;;;;;;2.40;1.77;;;18.60;51.50;;;;;;6298236;28;20044;-69
2023/03/17 08:16:52;;;;;;;2.55;1.60;;;18.60;51.40;;;;;;6281134;28;20024;-69
2023/03/17 08:19:54;;;;;;;2.65;1.60;;;18.60;51.00;;;;;;6298516;28;20393;-69
2023/03/17 08:22:56;;;;;;;4.13;1.90;;;18.70;50.20;;;;;;6280405;28;20033;-74
2023/03/17 08:25:59;;;;;;;4.90;1.95;;;18.60;49.80;;;;;;6298764;28;20025;-75
2023/03/17 08:29:00;;;;;;;9.05;3.10;;;18.60;48.90;;;;;;6298942;28;20489;-74
2023/03/17 08:32:00;;;;;;;9.20;2.72;;;18.60;46.80;;;;;;6280385;28;20020;-75
2023/03/17 08:35:01;;;;;;;5.07;2.33;;;18.70;48.00;;;;;;6280606;28;20401;-73
2023/03/17 08:38:04;;;;;;;7.22;2.60;;;18.70;48.30;;;;;;6300582;28;20036;-73
2023/03/17 08:41:08;;;;;;;4.57;2.67;;;18.70;48.70;;;;;;6280229;28;20375;-74
2023/03/17 08:44:09;;;;;;;3.47;1.95;;;18.70;49.30;;;;;;6291066;28;20184;-73
2023/03/17 08:47:09;;;;;;;3.42;2.15;;;18.70;49.70;;;;;;6305141;28;20036;-74
2023/03/17 08:50:19;;;;;;;3.15;1.70;;;18.70;49.70;;;;;;6305591;28;20032;-75
2023/03/17 08:53:19;;;;;;;4.10;2.00;;;18.70;49.70;;;;;;6308580;28;20043;-74
2023/03/17 08:56:21;;;;;;;4.53;2.13;;;18.70;50.00;;;;;;6307317;28;20035;-74
2023/03/17 08:59:22;;;;;;;3.30;2.05;;;18.70;50.20;;;;;;6324757;28;20032;-74
2023/03/17 09:02:23;;;;;;;4.90;2.40;;;18.70;50.30;;;;;;6323595;28;20027;-75
2023/03/17 09:05:24;;;;;;;3.03;1.98;;;18.70;50.10;;;;;;6304769;28;20016;-75
2023/03/17 09:08:26;;;;;;;4.65;2.25;;;18.70;50.20;;;;;;6306034;28;20035;-75
2023/03/17 09:11:30;;;;;;;3.85;1.83;;;18.70;50.30;;;;;;6297083;28;20020;-75
2023/03/17 09:14:32;;;;;;;3.42;1.98;;;18.70;50.40;;;;;;6297424;28;20104;-74
2023/03/17 09:17:33;;;;;;;5.47;2.15;;;18.70;50.50;;;;;;6297260;28;20539;-75
2023/03/17 09:20:34;;;;;;;3.78;2.17;;;18.60;50.50;;;;;;6297631;28;20040;-75
2023/03/17 09:23:35;;;;;;;3.15;1.90;;;18.60;50.50;;;;;;6297207;28;20028;-75
2023/03/17 09:26:36;;;;;;;2.47;1.85;;;18.70;50.70;;;;;;6297397;28;20024;-74
2023/03/17 09:29:37;;;;;;;4.50;1.92;;;18.60;50.70;;;;;;6297038;28;20024;-75
2023/03/17 09:32:38;;;;;;;3.75;1.92;;;18.60;50.70;;;;;;6302237;28;20077;-75
2023/03/17 09:35:39;;;;;;;3.17;1.88;;;18.70;50.80;;;;;;6322467;28;20020;-76
2023/03/17 09:38:40;;;;;;;2.60;1.60;;;18.60;50.70;;;;;;6320929;28;20047;-74
2023/03/17 09:41:41;;;;;;;2.92;1.70;;;18.60;50.70;;;;;;6322256;28;20056;-76
2023/03/17 09:44:47;;;;;;;3.83;2.17;;;18.70;50.90;;;;;;6304657;28;20147;-75
2023/03/17 09:48:14;;;;;;;2.28;1.58;;;18.70;50.90;;;;;;6304049;28;20485;-75
2023/03/17 09:51:18;;;;;;;5.10;2.42;;;18.60;50.90;;;;;;6303173;28;20032;-74
2023/03/17 09:54:33;;;;;;;2.83;1.70;;;18.70;51.00;;;;;;6321686;28;20031;-75
2023/03/17 09:57:36;;;;;;;3.33;1.80;;;18.70;51.10;;;;;;6303476;28;20116;-76
2023/03/17 10:00:38;;;;;;;3.50;1.70;;;18.60;51.00;;;;;;6320470;28;20040;-75
2023/03/17 10:03:39;;;;;;;2.72;1.85;;;18.70;51.10;;;;;;6303497;28;20024;-77
2023/03/17 10:06:46;;;;;;;2.83;1.60;;;18.60;51.00;;;;;;6321004;28;20481;-76
2023/03/17 10:10:15;;;;;;;1.50;1.20;;;18.60;51.00;;;;;;6321371;28;20024;-76
2023/03/17 10:13:25;;;;;;;2.65;1.63;;;18.60;51.10;;;;;;6320013;28;20477;-74
2023/03/17 10:16:38;;;;;;;2.33;1.52;;;18.70;51.20;;;;;;6303381;28;20144;-76
2023/03/17 10:19:54;;;;;;;3.08;1.80;;;18.60;51.20;;;;;;6303260;28;20500;-75
2023/03/17 10:23:12;;;;;;;2.95;1.30;;;18.70;51.20;;;;;;6303090;28;20460;-75
2023/03/17 10:26:32;;;;;;;4.07;1.85;;;18.60;51.20;;;;;;6303022;28;20035;-75
2023/03/17 10:29:33;;;;;;;2.80;1.40;;;18.70;51.20;;;;;;6302136;28;20028;-76
2023/03/17 10:32:38;;;;;;;2.47;1.90;;;18.70;51.30;;;;;;6320986;28;20020;-75
2023/03/17 10:35:39;;;;;;;1.55;1.15;;;18.70;51.30;;;;;;6302915;28;20215;-76
2023/03/17 10:38:48;;;;;;;2.90;1.52;;;18.70;51.30;;;;;;6320703;28;20103;-76
2023/03/17 10:41:58;;;;;;;2.65;1.65;;;18.60;51.20;;;;;;6302950;28;20024;-76
2023/03/17 10:45:41;;;;;;;3.47;1.73;;;18.70;51.40;;;;;;6320789;28;20039;-75
2023/03/17 10:48:51;;;;;;;3.13;1.52;;;18.70;51.40;;;;;;6268949;28;20416;-75
2023/03/17 10:51:52;;;;;;;1.92;1.40;;;18.60;51.30;;;;;;6320894;28;20165;-76
2023/03/17 10:54:53;;;;;;;2.25;1.48;;;18.70;51.40;;;;;;6320691;28;20035;-75
2023/03/17 10:58:05;;;;;;;2.22;1.70;;;18.70;51.40;;;;;;6320597;28;20020;-75
2023/03/17 11:01:28;;;;;;;2.30;1.30;;;18.70;51.50;;;;;;6321600;28;20032;-76
2023/03/17 11:04:36;;;;;;;2.92;1.50;;;18.70;51.50;;;;;;6320876;28;20103;-76
2023/03/17 11:07:44;;;;;;;3.42;2.00;;;18.70;51.50;;;;;;6303583;28;20109;-76
2023/03/17 11:10:54;;;;;;;2.70;1.50;;;18.60;51.40;;;;;;6304319;28;20039;-76
2023/03/17 11:14:02;;;;;;;1.83;1.42;;;18.60;51.50;;;;;;6321843;28;20026;-76
2023/03/17 11:17:16;;;;;;;1.73;1.25;;;18.60;51.50;;;;;;6322130;28;20027;-76
2023/03/17 11:21:01;;;;;;;2.83;1.40;;;18.60;51.50;;;;;;6304519;28;20052;-76
2023/03/17 11:24:11;;;;;;;2.47;1.50;;;18.70;51.60;;;;;;6303082;28;20060;-76
2023/03/17 11:27:39;;;;;;;3.50;1.80;;;18.70;51.70;;;;;;6321291;28;20021;-76
2023/03/17 11:30:49;;;;;;;2.97;1.60;;;18.70;51.70;;;;;;6302524;28;20054;-76
2023/03/17 11:34:10;;;;;;;3.97;1.45;;;18.70;51.70;;;;;;6303064;28;20107;-76
2023/03/17 11:37:32;;;;;;;2.13;1.40;;;18.70;51.70;;;;;;6306440;28;20024;-76
2023/03/17 11:41:10;;;;;;;2.25;1.50;;;18.70;51.70;;;;;;6325816;28;20031;-76
2023/03/17 11:44:39;;;;;;;2.70;1.50;;;18.60;51.70;;;;;;6307033;28;20043;-75
2023/03/17 11:48:09;;;;;;;2.95;1.50;;;18.70;51.70;;;;;;6325105;28;20078;-76
2023/03/17 11:51:31;;;;;;;1.55;1.13;;;18.70;51.70;;;;;;6307277;28;20055;-75
2023/03/17 11:54:44;;;;;;;2.28;1.40;;;18.70;51.80;;;;;;6286537;28;20024;-76
2023/03/17 11:58:04;;;;;;;1.85;1.42;;;18.60;51.70;;;;;;6307524;28;20020;-76
2023/03/17 12:01:12;;;;;;;2.20;1.45;;;18.70;52.50;;;;;;6307577;28;20031;-75
2023/03/17 12:04:25;;;;;;;1.90;1.40;;;18.70;51.80;;;;;;6307462;28;20027;-77
2023/03/17 12:07:57;;;;;;;1.73;1.20;;;18.60;51.70;;;;;;6306659;28;20080;-75
2023/03/17 12:11:01;;;;;;;2.10;1.40;;;18.70;51.80;;;;;;6305222;28;20035;-76
2023/03/17 12:14:05;;;;;;;1.98;1.38;;;18.70;51.70;;;;;;6306440;28;20030;-76
2023/03/17 12:17:37;;;;;;;2.00;1.50;;;18.80;51.80;;;;;;6306167;28;20025;-76
2023/03/17 12:20:55;;;;;;;2.47;1.48;;;18.80;51.50;;;;;;6306418;28;20572;-76
2023/03/17 12:24:10;;;;;;;1.58;1.23;;;18.80;51.50;;;;;;6306749;28;20064;-75
2023/03/17 12:27:18;;;;;;;1.75;1.20;;;18.80;51.40;;;;;;6305911;28;20024;-76
2023/03/17 12:30:26;;;;;;;1.80;1.20;;;18.80;51.20;;;;;;6307003;28;20024;-75
2023/03/17 12:33:45;;;;;;;1.70;1.20;;;18.90;51.40;;;;;;6325571;28;20479;-75
2023/03/17 12:36:47;;;;;;;2.88;1.30;;;18.80;51.40;;;;;;6306863;28;20512;-75
2023/03/17 12:40:13;;;;;;;2.97;1.40;;;18.80;51.40;;;;;;6324228;28;20044;-76
2023/03/17 12:43:51;;;;;;;2.88;1.30;;;18.80;51.60;;;;;;6307785;28;20119;-75
2023/03/17 12:47:04;;;;;;;4.15;1.08;;;18.80;51.70;;;;;;6324715;28;20028;-75
2023/03/17 12:50:33;;;;;;;2.22;1.40;;;18.80;51.70;;;;;;6308423;28;20062;-75
2023/03/17 12:53:40;;;;;;;4.60;1.52;;;18.70;51.70;;;;;;6327473;28;20513;-76
2023/03/17 12:56:47;;;;;;;2.03;1.25;;;18.70;51.70;;;;;;6308545;28;20023;-76
2023/03/17 13:00:14;;;;;;;3.63;1.42;;;18.80;51.80;;;;;;6308354;28;20055;-75
2023/03/17 13:03:24;;;;;;;2.28;1.05;;;18.70;51.70;;;;;;6309711;28;20050;-76
2023/03/17 13:06:28;;;;;;;4.80;1.30;;;18.70;51.80;;;;;;6308358;28;20465;-76
2023/03/17 13:09:35;;;;;;;2.83;1.42;;;18.70;51.80;;;;;;6308100;28;20035;-77
2023/03/17 13:12:39;;;;;;;2.20;1.35;;;18.70;51.80;;;;;;6307835;28;20073;-76
2023/03/17 13:15:40;;;;;;;1.40;1.10;;;18.70;51.80;;;;;;6322014;28;20027;-75
2023/03/17 13:18:46;;;;;;;1.58;1.20;;;18.70;51.80;;;;;;6304582;28;20470;-76
2023/03/17 13:21:56;;;;;;;1.60;0.90;;;18.70;51.80;;;;;;6304185;28;20093;-76
2023/03/17 13:25:11;;;;;;;1.33;0.98;;;18.70;51.80;;;;;;6323860;28;20473;-76
2023/03/17 13:28:12;;;;;;;2.33;1.30;;;18.80;51.90;;;;;;6322254;28;20024;-76
2023/03/17 13:31:30;;;;;;;3.20;1.30;;;18.70;51.90;;;;;;6304248;28;20032;-76
2023/03/17 13:34:51;;;;;;;1.75;0.82;;;18.70;51.80;;;;;;6304311;28;20012;-76
2023/03/17 13:38:30;;;;;;;1.20;1.10;;;18.70;51.90;;;;;;6321036;28;20075;-76
2023/03/17 13:41:31;;;;;;;1.58;1.20;;;18.70;51.90;;;;;;6321583;28;20103;-76
2023/03/17 13:44:37;;;;;;;1.45;1.00;;;18.80;52.00;;;;;;6323305;28;20054;-76
2023/03/17 13:47:41;;;;;;;2.05;1.10;;;18.70;51.90;;;;;;6304939;28;20027;-76
2023/03/17 13:50:42;;;;;;;1.88;1.27;;;18.70;51.90;;;;;;6304779;28;20089;-76
2023/03/17 13:53:56;;;;;;;1.77;1.27;;;18.70;51.90;;;;;;6323440;28;20020;-76
2023/03/17 13:57:18;;;;;;;1.30;1.05;;;18.70;51.90;;;;;;6323563;28;20062;-76
2023/03/17 14:00:23;;;;;;;1.70;1.00;;;18.70;51.90;;;;;;6323617;28;20050;-76
2023/03/17 14:03:48;;;;;;;1.63;1.02;;;18.70;51.90;;;;;;6324235;28;20024;-76
2023/03/17 14:06:52;;;;;;;1.73;0.88;;;18.70;51.90;;;;;;6301361;28;20501;-75
2023/03/17 14:09:58;;;;;;;1.58;0.98;;;18.70;51.90;;;;;;6280242;28;20032;-73
2023/03/17 14:13:20;;;;;;;1.67;1.10;;;18.70;52.00;;;;;;6287603;28;20149;-74
2023/03/17 14:16:30;;;;;;;1.25;0.90;;;18.70;52.00;;;;;;6320194;28;20393;-73
2023/03/17 14:19:32;;;;;;;2.03;1.23;;;18.70;52.00;;;;;;6301203;28;20028;-74
2023/03/17 14:22:43;;;;;;;1.42;1.00;;;18.70;52.00;;;;;;6289531;28;20115;-74
2023/03/17 14:25:44;;;;;;;1.13;0.85;;;18.70;52.00;;;;;;6293951;28;20028;-73
2023/03/17 14:28:47;;;;;;;1.55;1.02;;;18.70;52.00;;;;;;6299858;28;20047;-73
2023/03/17 14:31:57;;;;;;;1.48;0.90;;;18.70;52.00;;;;;;6301243;28;20035;-74
2023/03/17 14:34:58;;;;;;;2.05;1.00;;;18.70;52.00;;;;;;6277597;28;20029;-74
2023/03/17 14:38:01;;;;;;;2.38;1.30;;;18.70;52.00;;;;;;6268404;28;20029;-74
2023/03/17 14:41:04;;;;;;;1.25;0.93;;;18.70;52.10;;;;;;6276181;28;20063;-74
2023/03/17 14:44:07;;;;;;;1.30;0.90;;;18.70;52.10;;;;;;6294246;28;20041;-73
2023/03/17 14:47:21;;;;;;;1.60;1.00;;;18.70;52.00;;;;;;6275900;28;20027;-73
2023/03/17 14:50:28;;;;;;;1.50;0.82;;;18.70;52.10;;;;;;6276185;28;20029;-73
2023/03/17 14:53:30;;;;;;;1.73;0.95;;;18.70;52.00;;;;;;6293671;28;20074;-73
2023/03/17 14:56:36;;;;;;;1.63;1.10;;;18.70;52.10;;;;;;6294369;28;20017;-73
2023/03/17 14:59:40;;;;;;;2.35;1.30;;;18.70;52.10;;;;;;6275418;28;20055;-73
2023/03/17 15:02:43;;;;;;;1.25;0.90;;;18.70;52.00;;;;;;6276506;28;20758;-73
2023/03/17 15:05:45;;;;;;;1.77;0.85;;;18.70;52.10;;;;;;6290125;28;20029;-74
2023/03/17 15:08:46;;;;;;;1.40;1.10;;;18.70;52.10;;;;;;6281008;28;20690;-73
2023/03/17 15:11:48;;;;;;;0.98;0.80;;;18.70;52.10;;;;;;6321775;28;20052;-75
2023/03/17 15:14:59;;;;;;;1.08;0.95;;;18.70;52.10;;;;;;6284705;28;20505;-74
2023/03/17 15:18:11;;;;;;;2.45;1.00;;;18.70;52.10;;;;;;6255810;28;20013;-74
2023/03/17 15:21:41;;;;;;;1.35;0.90;;;18.70;52.10;;;;;;6296294;28;20036;-73
2023/03/17 15:24:42;;;;;;;1.08;0.90;;;18.70;52.10;;;;;;6296733;28;20021;-74
2023/03/17 15:27:44;;;;;;;1.33;1.00;;;18.70;52.10;;;;;;6280102;28;20063;-74
2023/03/17 15:30:48;;;;;;;1.13;0.93;;;18.70;52.10;;;;;;6316003;28;20077;-74
2023/03/17 15:33:50;;;;;;;0.70;0.68;;;18.70;52.10;;;;;;6303138;28;20031;-73
2023/03/17 15:36:50;;;;;;;1.70;1.00;;;18.70;52.10;;;;;;6288464;28;20047;-73
2023/03/17 15:39:53;;;;;;;0.82;0.70;;;18.70;52.10;;;;;;6298685;28;20024;-72
2023/03/17 15:42:54;;;;;;;1.20;0.90;;;18.70;52.10;;;;;;6305003;28;20085;-73
2023/03/17 15:46:09;;;;;;;1.30;0.80;;;18.70;52.10;;;;;;6286050;28;20072;-73
2023/03/17 15:49:11;;;;;;;0.82;0.68;;;18.70;52.20;;;;;;6277809;28;20032;-74
2023/03/17 15:52:21;;;;;;;3.15;1.02;;;18.70;52.20;;;;;;6296498;28;20036;-75
2023/03/17 15:55:28;;;;;;;0.80;0.73;;;18.70;52.10;;;;;;6278135;28;20021;-73
2023/03/17 15:58:28;;;;;;;0.82;0.70;;;18.70;52.10;;;;;;6282808;28;20031;-73
2023/03/17 16:01:29;;;;;;;0.90;0.80;;;18.70;52.10;;;;;;6322654;28;20032;-73
2023/03/17 16:04:30;;;;;;;1.15;0.80;;;18.70;52.10;;;;;;6318188;28;20409;-75
2023/03/17 16:07:31;;;;;;;1.10;0.90;;;18.70;52.20;;;;;;6304509;28;20549;-73